Аэропорт: Уйташ. Махачкала

ICAO: URML

METAR:
2019/05/26 14:00
URML 261400Z 36006MPS 9999 NSC 25/12 Q1011 R32/01//70 NOSIG RMK QFE758/1011
METAR:
2018/10/17 18:00
TAF URML 171700Z 1718/1803 15005G10MPS 6000 SCT011 BKN020 
      TEMPO 1718/1724 22003G10MPS 3100 BR SCT007 BKN011